Time;durP1;ratioP1;P1;durP2;ratioP2;P2;SDS_P1;SDS_P2;PMS_P1;PMS_P2;Temp;Humidity;BMP_temperature;BMP_pressure;BME280_temperature;BME280_humidity;BME280_pressure;Samples;Min_cycle;Max_cycle;Signal;HPM_P1;HPM_P2
2022/09/12 00:01:10;;;;;;;14.75;13.02;;;;;;;19.00;58.91;100016.00;5112308;28;20040;-62
2022/09/12 00:03:37;;;;;;;13.32;12.02;;;;;;;19.01;58.14;100018.56;5113673;28;20059;-61
2022/09/12 00:06:20;;;;;;;15.00;13.23;;;;;;;18.98;58.68;100021.47;5111986;28;20047;-62
2022/09/12 00:08:49;;;;;;;17.83;15.20;;;;;;;19.00;58.28;100016.84;5112037;28;20120;-63
2022/09/12 00:11:16;;;;;;;15.85;14.00;;;;;;;18.99;58.29;100014.34;5112122;28;20055;-61
2022/09/12 00:13:43;;;;;;;14.25;12.75;;;;;;;18.98;57.98;100021.47;5112071;28;20514;-63
2022/09/12 00:16:30;;;;;;;17.88;14.93;;;;;;;18.92;59.01;100015.84;5112064;28;20138;-62
2022/09/12 00:18:57;;;;;;;15.68;13.95;;;;;;;18.96;58.20;100017.25;5112241;28;20498;-61
2022/09/12 00:21:25;;;;;;;16.02;14.32;;;;;;;18.94;58.55;100017.41;5112619;28;20078;-62
2022/09/12 00:23:52;;;;;;;20.00;14.70;;;;;;;18.92;58.66;100013.19;5111218;28;20039;-61
2022/09/12 00:26:20;;;;;;;17.60;15.40;;;;;;;18.90;58.59;100007.97;5112799;28;20094;-63
2022/09/12 00:28:48;;;;;;;19.80;14.55;;;;;;;18.89;58.64;100008.97;5113008;28;20044;-62
2022/09/12 00:31:17;;;;;;;20.15;15.95;;;;;;;18.86;58.82;100015.41;5113076;28;20101;-62
2022/09/12 00:33:44;;;;;;;17.50;13.68;;;;;;;18.84;58.71;100004.03;5111793;28;20127;-62
2022/09/12 00:36:22;;;;;;;17.25;15.40;;;;;;;18.80;59.68;100013.28;5113035;28;20091;-61
2022/09/12 00:38:53;;;;;;;18.58;16.15;;;;;;;18.81;59.46;100001.66;5112501;28;20086;-61
2022/09/12 00:41:26;;;;;;;16.98;14.95;;;;;;;18.79;59.57;99998.25;5113039;28;20066;-63
2022/09/12 00:44:15;;;;;;;17.83;14.38;;;;;;;18.75;59.50;100007.50;5111506;28;20593;-62
2022/09/12 00:46:46;;;;;;;19.95;16.20;;;;;;;18.79;58.89;99997.41;5112728;28;20138;-62
2022/09/12 00:49:15;;;;;;;18.42;14.52;;;;;;;18.77;58.99;99989.56;5111153;28;20083;-62
2022/09/12 00:51:50;;;;;;;19.13;16.80;;;;;;;18.73;59.69;99985.47;5112690;28;20091;-63
2022/09/12 00:54:21;;;;;;;20.80;15.40;;;;;;;18.72;59.60;99986.44;5112544;28;20055;-63
2022/09/12 00:56:51;;;;;;;18.92;15.40;;;;;;;18.70;59.56;99991.06;5110770;28;20086;-62
2022/09/12 00:59:26;;;;;;;19.38;16.48;;;;;;;18.67;59.80;99988.66;5112210;28;20087;-62
2022/09/12 01:01:53;;;;;;;18.80;16.58;;;;;;;18.67;59.27;99983.34;5112420;28;20098;-61
2022/09/12 01:04:24;;;;;;;19.95;15.95;;;;;;;18.64;59.74;99978.28;5112746;28;20534;-62
2022/09/12 01:06:51;;;;;;;20.58;17.58;;;;;;;18.62;59.26;99979.25;5112090;28;20071;-62
2022/09/12 01:09:21;;;;;;;19.25;16.35;;;;;;;18.60;60.07;99986.56;5110628;28;20130;-63
2022/09/12 01:11:50;;;;;;;19.83;17.10;;;;;;;18.59;59.80;99987.53;5110977;28;20087;-62
2022/09/12 01:14:17;;;;;;;21.42;17.40;;;;;;;18.59;59.59;99979.53;5110762;28;20095;-62
2022/09/12 01:16:46;;;;;;;23.58;17.50;;;;;;;18.57;59.55;99986.81;5112349;28;20059;-62
2022/09/12 01:19:37;;;;;;;22.58;17.58;;;;;;;18.53;60.28;99982.72;5110727;28;20138;-62
2022/09/12 01:22:19;;;;;;;20.08;16.38;;;;;;;18.51;60.08;99986.50;5111879;28;20052;-62
2022/09/12 01:24:58;;;;;;;21.88;18.30;;;;;;;18.49;60.42;99987.50;5111596;28;20043;-62
2022/09/12 01:27:27;;;;;;;25.35;20.33;;;;;;;18.50;59.63;99980.31;5111969;28;20069;-62
2022/09/12 01:30:21;;;;;;;27.33;20.33;;;;;;;18.45;60.68;99982.53;5110818;28;20098;-62
2022/09/12 01:33:20;;;;;;;24.13;18.77;;;;;;;18.42;60.71;99978.31;5111972;28;20578;-62
2022/09/12 01:35:56;;;;;;;24.90;18.73;;;;;;;18.43;60.62;99982.66;5111974;28;20362;-63
2022/09/12 01:38:35;;;;;;;27.38;20.17;;;;;;;18.45;59.93;99980.72;5091199;28;20127;-62
2022/09/12 01:41:43;;;;;;;27.98;19.92;;;;;;;18.39;60.84;99980.44;5091124;28;20048;-63
2022/09/12 01:44:37;;;;;;;23.52;17.95;;;;;;;18.37;60.56;99975.22;5078218;28;20052;-63
2022/09/12 01:47:22;;;;;;;26.10;18.52;;;;;;;18.35;60.37;99980.69;5091342;28;20087;-62
2022/09/12 01:50:05;;;;;;;24.90;18.35;;;;;;;18.36;60.51;99968.22;5106436;28;20487;-62
2022/09/12 01:52:38;;;;;;;24.80;17.63;;;;;;;18.34;60.64;99965.69;5094596;28;20131;-60
2022/09/12 01:55:12;;;;;;;27.45;19.63;;;;;;;18.34;60.45;99967.47;5111438;28;20052;-61
2022/09/12 01:57:44;;;;;;;23.35;17.38;;;;;;;18.33;60.48;99960.47;5111545;28;20127;-61
2022/09/12 02:00:12;;;;;;;25.20;18.37;;;;;;;18.32;60.26;99964.13;5109849;28;20101;-61
2022/09/12 02:03:01;;;;;;;27.20;18.50;;;;;;;18.26;60.42;99965.50;5110163;28;20043;-60
2022/09/12 02:05:37;;;;;;;23.30;17.05;;;;;;;18.28;60.83;99958.19;5111359;28;20044;-62
2022/09/12 02:08:13;;;;;;;23.88;17.73;;;;;;;18.26;60.72;99954.84;5109910;28;20087;-64
2022/09/12 02:10:46;;;;;;;23.27;16.90;;;;;;;18.24;60.72;99959.44;5109246;28;20130;-60
2022/09/12 02:13:19;;;;;;;23.35;17.00;;;;;;;18.23;60.60;99955.09;5110157;28;20043;-61
2022/09/12 02:15:49;;;;;;;;;;;;;;;18.21;59.85;99955.22;5110434;28;20079;-62
2022/09/12 02:18:18;;;;;;;19.42;13.70;;;;;;;18.24;59.91;99954.09;5110962;28;19975;-63
2022/09/12 02:20:47;;;;;;;21.88;16.17;;;;;;;18.21;59.79;99952.56;5109682;28;20051;-61
2022/09/12 02:23:27;;;;;;;23.42;15.70;;;;;;;18.16;60.26;99948.63;5111065;28;20058;-61
2022/09/12 02:25:58;;;;;;;21.85;14.60;;;;;;;18.15;60.05;99949.56;5110546;28;20083;-61
2022/09/12 02:28:32;;;;;;;20.00;14.73;;;;;;;18.12;60.67;99949.88;5109106;28;20101;-61
2022/09/12 02:31:18;;;;;;;26.80;15.40;;;;;;;18.06;60.67;99949.34;5110998;28;20131;-61
2022/09/12 02:33:44;;;;;;;19.92;14.82;;;;;;;18.09;60.11;99949.13;5111291;28;20081;-64
2022/09/12 02:36:24;;;;;;;23.45;17.02;;;;;;;18.04;60.47;99953.13;5110980;28;20040;-61
2022/09/12 02:38:51;;;;;;;24.27;16.55;;;;;;;18.05;60.27;99947.69;5109399;28;20075;-61
2022/09/12 02:41:19;;;;;;;24.52;16.55;;;;;;;18.03;60.62;99948.78;5111276;28;20083;-62
2022/09/12 02:43:48;;;;;;;22.48;16.80;;;;;;;18.01;60.60;99943.59;5113616;28;20408;-60
2022/09/12 02:46:22;;;;;;;26.40;18.10;;;;;;;17.98;60.90;99943.84;5113783;28;20131;-61
2022/09/12 02:48:48;;;;;;;22.75;16.52;;;;;;;17.98;60.41;99933.19;5113649;28;20138;-62
2022/09/12 02:51:16;;;;;;;24.38;16.17;;;;;;;17.96;60.53;99932.50;5114840;28;20043;-62
2022/09/12 02:53:49;;;;;;;24.95;17.48;;;;;;;17.95;60.72;99925.47;5114871;28;20659;-62
2022/09/12 02:56:28;;;;;;;24.13;16.90;;;;;;;17.90;60.79;99923.19;5114817;28;20086;-62
2022/09/12 02:59:00;;;;;;;22.30;16.33;;;;;;;17.92;60.64;99929.25;5114513;28;20047;-61
2022/09/12 03:01:52;;;;;;;24.85;16.50;;;;;;;17.88;60.96;99922.50;5113851;28;20079;-62
2022/09/12 03:04:46;;;;;;;20.95;15.98;;;;;;;17.87;60.95;99918.13;5114584;28;20050;-62
2022/09/12 03:07:30;;;;;;;23.75;16.50;;;;;;;17.89;60.40;99921.53;5114351;28;20123;-62
2022/09/12 03:10:22;;;;;;;22.55;15.30;;;;;;;17.84;60.53;99918.41;5112734;28;20048;-62
2022/09/12 03:13:10;;;;;;;20.77;15.82;;;;;;;17.80;60.74;99912.47;5114524;28;20086;-63
2022/09/12 03:16:10;;;;;;;18.73;14.32;;;;;;;17.74;60.67;99913.03;5114662;28;20044;-61
2022/09/12 03:18:54;;;;;;;22.50;16.20;;;;;;;17.71;60.66;99910.59;5113244;28;20407;-61
2022/09/12 03:21:30;;;;;;;20.08;15.75;;;;;;;17.69;60.63;99916.06;5114004;28;20127;-61
2022/09/12 03:24:03;;;;;;;24.00;16.38;;;;;;;17.67;60.89;99911.84;5114307;28;20134;-61
2022/09/12 03:26:34;;;;;;;;;;;;;;;17.65;60.10;99909.31;5114882;28;20457;-64
2022/09/12 03:29:03;;;;;;;21.70;15.30;;;;;;;17.67;60.23;99906.53;5114358;28;20664;-61
2022/09/12 03:31:30;;;;;;;23.13;16.42;;;;;;;17.65;60.39;99908.47;5114225;28;20047;-62
2022/09/12 03:33:58;;;;;;;20.80;15.55;;;;;;;17.60;60.46;99911.53;5114289;28;20078;-61
2022/09/12 03:36:27;;;;;;;27.20;17.15;;;;;;;17.57;60.89;99911.81;5113765;28;20102;-62
2022/09/12 03:38:54;;;;;;;22.38;16.50;;;;;;;17.55;60.41;99911.94;5093357;28;20216;-62
2022/09/12 03:41:21;;;;;;;21.52;16.10;;;;;;;17.53;60.55;99908.53;5093539;28;20472;-61
2022/09/12 03:43:48;;;;;;;17.70;13.63;;;;;;;17.53;60.54;99905.03;5093534;28;20487;-62
2022/09/12 03:46:14;;;;;;;20.08;14.65;;;;;;;17.51;60.63;99906.97;5103112;28;20449;-61
2022/09/12 03:48:41;;;;;;;22.35;16.02;;;;;;;17.50;60.89;99905.28;5114112;28;20090;-61
2022/09/12 03:51:09;;;;;;;21.73;16.20;;;;;;;17.47;61.05;99911.72;5113699;28;20070;-60
2022/09/12 03:53:36;;;;;;;19.55;15.52;;;;;;;17.47;60.73;99917.03;5111390;28;20086;-63
2022/09/12 03:56:10;;;;;;;22.33;16.00;;;;;;;17.44;61.22;99914.63;5112923;27;20044;-62
2022/09/12 03:58:37;;;;;;;25.17;15.60;;;;;;;17.45;61.01;99909.19;5113308;28;20523;-62
2022/09/12 04:01:11;;;;;;;22.00;16.67;;;;;;;17.41;61.48;99907.75;5113553;28;20093;-61
2022/09/12 04:03:42;;;;;;;19.75;14.63;;;;;;;17.41;61.11;99913.06;5113563;28;20066;-62
2022/09/12 04:06:11;;;;;;;19.65;14.85;;;;;;;17.41;61.01;99907.75;5111891;28;20454;-62
2022/09/12 04:08:38;;;;;;;16.27;13.10;;;;;;;17.41;60.74;99906.91;5113026;28;20530;-62
2022/09/12 04:11:07;;;;;;;21.45;14.85;;;;;;;17.39;60.79;99908.84;5113124;27;20124;-61
2022/09/12 04:13:35;;;;;;;19.42;14.32;;;;;;;17.39;60.61;99916.84;5112283;28;20127;-61
2022/09/12 04:16:03;;;;;;;18.88;14.95;;;;;;;17.37;60.78;99916.09;5113284;28;20047;-61
2022/09/12 04:18:30;;;;;;;18.20;14.95;;;;;;;17.36;60.86;99906.44;5112025;28;20083;-61
2022/09/12 04:20:57;;;;;;;21.17;14.70;;;;;;;17.35;60.94;99907.41;5113444;28;20127;-60
2022/09/12 04:23:23;;;;;;;15.43;12.70;;;;;;;17.33;60.84;99910.19;5113224;28;20452;-62
2022/09/12 04:25:58;;;;;;;19.85;13.90;;;;;;;17.28;61.36;99907.94;5113070;28;20131;-62
2022/09/12 04:28:27;;;;;;;19.58;14.13;;;;;;;17.30;61.03;99908.66;5112025;28;20560;-62
2022/09/12 04:30:55;;;;;;;18.70;13.57;;;;;;;17.29;61.23;99908.78;5111839;28;20083;-61
2022/09/12 04:33:22;;;;;;;19.63;13.40;;;;;;;17.27;61.25;99898.25;5113189;28;20051;-62
2022/09/12 04:35:49;;;;;;;17.95;12.85;;;;;;;17.26;60.97;99899.22;5112470;28;20083;-63
2022/09/12 04:38:15;;;;;;;16.30;12.95;;;;;;;17.26;61.09;99893.91;5112512;28;20048;-61
2022/09/12 04:40:42;;;;;;;19.58;14.68;;;;;;;17.25;60.99;99897.56;5112566;28;20105;-60
2022/09/12 04:43:08;;;;;;;16.75;12.45;;;;;;;17.24;61.03;99895.00;5112519;28;20051;-63
2022/09/12 04:45:40;;;;;;;16.35;12.43;;;;;;;17.23;61.39;99894.16;5112972;28;20077;-61
2022/09/12 04:48:06;;;;;;;17.70;13.55;;;;;;;17.23;61.26;99888.84;5112669;28;20039;-60
2022/09/12 04:50:33;;;;;;;17.65;13.02;;;;;;;17.22;61.51;99886.31;5112303;28;20380;-61
2022/09/12 04:52:59;;;;;;;18.48;13.98;;;;;;;17.20;61.42;99889.13;5112312;28;20090;-64
2022/09/12 04:55:26;;;;;;;18.58;14.15;;;;;;;17.19;61.65;99888.25;5111418;28;20130;-61
2022/09/12 04:57:53;;;;;;;16.90;12.65;;;;;;;17.20;61.42;99886.44;5112392;28;20093;-62
2022/09/12 05:00:19;;;;;;;20.15;13.25;;;;;;;17.19;61.68;99884.75;5112261;28;20079;-61
2022/09/12 05:02:46;;;;;;;19.20;12.60;;;;;;;17.18;61.53;99891.91;5112653;28;20138;-64
2022/09/12 05:05:12;;;;;;;15.07;11.13;;;;;;;17.19;61.57;99892.72;5111126;28;20093;-61
2022/09/12 05:07:39;;;;;;;18.85;12.43;;;;;;;17.18;61.57;99897.22;5111578;28;20082;-61
2022/09/12 05:10:06;;;;;;;16.05;11.35;;;;;;;17.19;61.72;99890.06;5112156;28;20051;-62
2022/09/12 05:12:33;;;;;;;15.80;11.38;;;;;;;17.21;61.63;99897.91;5110862;28;20040;-60
2022/09/12 05:14:59;;;;;;;14.25;10.85;;;;;;;17.21;61.50;99889.94;5112181;28;20777;-60
2022/09/12 05:17:28;;;;;;;15.82;11.57;;;;;;;17.21;61.82;99893.44;5111916;28;20094;-61
2022/09/12 05:19:55;;;;;;;14.23;11.20;;;;;;;17.22;61.66;99892.47;5110483;28;20082;-60
2022/09/12 05:22:21;;;;;;;12.95;10.50;;;;;;;17.22;61.67;99895.13;5111274;28;20138;-62
2022/09/12 05:24:48;;;;;;;14.20;10.80;;;;;;;17.22;61.76;99887.16;5111015;27;20039;-63
2022/09/12 05:27:16;;;;;;;15.07;10.77;;;;;;;17.23;61.82;99891.50;5112191;28;20238;-61
2022/09/12 05:29:43;;;;;;;16.63;10.68;;;;;;;17.24;61.90;99882.56;5111965;27;20051;-61
2022/09/12 05:32:11;;;;;;;17.73;10.63;;;;;;;17.25;61.79;99881.59;5111792;28;20082;-61
2022/09/12 05:34:39;;;;;;;14.07;10.25;;;;;;;17.27;61.74;99886.78;5111673;28;20457;-61
2022/09/12 05:37:05;;;;;;;11.10;8.63;;;;;;;17.28;61.69;99881.34;5109956;28;20069;-61
2022/09/12 05:39:32;;;;;;;10.98;9.30;;;;;;;17.29;61.71;99875.03;5110194;28;20139;-61
2022/09/12 05:41:59;;;;;;;11.23;9.27;;;;;;;17.32;61.84;99887.25;5109591;28;20039;-61
2022/09/12 05:44:25;;;;;;;13.13;10.40;;;;;;;17.33;62.09;99870.28;5111325;28;20117;-60
2022/09/12 05:46:52;;;;;;;15.27;10.35;;;;;;;17.36;61.80;99866.53;5111445;28;20424;-61
2022/09/12 05:49:20;;;;;;;14.07;11.45;;;;;;;17.37;61.89;99869.06;5110444;27;20044;-61
2022/09/12 05:51:47;;;;;;;12.07;9.75;;;;;;;17.38;62.02;99873.41;5111374;28;20064;-62
2022/09/12 05:54:16;;;;;;;13.18;10.98;;;;;;;17.39;62.32;99879.59;5091505;28;20358;-61
2022/09/12 05:56:44;;;;;;;12.63;9.23;;;;;;;17.42;62.14;99884.66;5090062;28;20108;-61
2022/09/12 05:59:14;;;;;;;13.77;10.50;;;;;;;17.44;62.43;99888.03;5090934;28;20048;-61
2022/09/12 06:01:41;;;;;;;11.27;9.15;;;;;;;17.48;62.23;99891.25;5089293;28;20262;-60
2022/09/12 06:04:08;;;;;;;12.02;8.90;;;;;;;17.51;62.16;99885.69;5089954;28;20052;-61
2022/09/12 06:06:37;;;;;;;14.88;10.13;;;;;;;17.53;62.47;99887.25;5090740;28;20044;-61
2022/09/12 06:09:05;;;;;;;13.52;9.85;;;;;;;17.57;62.32;99880.69;5101016;28;20502;-61
2022/09/12 06:11:34;;;;;;;13.05;10.18;;;;;;;17.62;62.30;99887.44;5110319;28;20094;-61
2022/09/12 06:14:01;;;;;;;15.60;9.82;;;;;;;17.67;62.40;99890.53;5109113;28;20192;-61
2022/09/12 06:16:30;;;;;;;11.80;9.57;;;;;;;17.70;62.46;99887.63;5110373;28;20607;-61
2022/09/12 06:19:01;;;;;;;12.15;9.60;;;;;;;17.76;62.25;99888.94;5110588;28;20048;-60
2022/09/12 06:21:30;;;;;;;15.05;10.60;;;;;;;17.81;62.58;99887.56;5111073;28;20055;-60
2022/09/12 06:23:57;;;;;;;13.55;9.95;;;;;;;17.87;62.42;99891.50;5111192;28;20058;-60
2022/09/12 06:26:25;;;;;;;14.80;9.30;;;;;;;17.93;62.38;99884.81;5110723;28;20839;-60
2022/09/12 06:28:54;;;;;;;14.63;9.77;;;;;;;17.97;62.30;99887.09;5109332;28;20039;-61
2022/09/12 06:31:28;;;;;;;11.65;9.30;;;;;;;18.03;62.46;99877.72;5110947;28;20087;-61
2022/09/12 06:33:56;;;;;;;11.90;8.93;;;;;;;18.13;62.43;99885.78;5109805;28;20126;-61
2022/09/12 06:36:26;;;;;;;14.02;8.70;;;;;;;18.18;62.30;99883.56;5109724;28;20051;-62
2022/09/12 06:38:57;;;;;;;12.40;9.30;;;;;;;18.26;62.10;99882.91;5110663;28;20445;-62
2022/09/12 06:41:25;;;;;;;10.75;8.70;;;;;;;18.35;61.94;99887.41;5110333;28;20407;-60
2022/09/12 06:43:52;;;;;;;11.63;8.88;;;;;;;18.44;61.71;99883.09;5109645;28;20509;-61
2022/09/12 06:46:19;;;;;;;12.85;8.90;;;;;;;18.51;61.47;99880.75;5110120;28;20048;-61
2022/09/12 06:48:46;;;;;;;13.18;9.73;;;;;;;18.58;61.65;99894.34;5108553;28;20052;-62
2022/09/12 06:51:16;;;;;;;11.13;8.40;;;;;;;18.63;61.60;99892.13;5109924;28;20043;-60
2022/09/12 06:53:44;;;;;;;11.93;9.82;;;;;;;18.69;61.34;99886.22;5110346;28;20130;-61
2022/09/12 06:56:12;;;;;;;14.32;9.93;;;;;;;18.75;61.52;99884.84;5110229;28;20127;-61
2022/09/12 06:58:40;;;;;;;9.57;7.68;;;;;;;18.80;61.13;99884.44;5109022;28;20063;-61
2022/09/12 07:01:18;;;;;;;10.30;8.55;;;;;;;18.83;61.15;99890.34;5110778;28;20124;-62
2022/09/12 07:03:53;;;;;;;9.90;8.48;;;;;;;18.88;60.85;99885.41;5110702;28;20449;-60
2022/09/12 07:06:23;;;;;;;9.75;7.95;;;;;;;18.95;60.79;99888.38;5110605;28;20051;-63
2022/09/12 07:08:49;;;;;;;9.60;8.55;;;;;;;19.00;60.75;99882.63;5110517;28;20087;-61
2022/09/12 07:11:22;;;;;;;9.90;8.23;;;;;;;19.04;60.52;99894.72;5110572;28;20138;-61
2022/09/12 07:13:52;;;;;;;8.35;7.25;;;;;;;19.08;60.66;99896.16;5110559;28;20132;-61
2022/09/12 07:16:19;;;;;;;9.02;7.18;;;;;;;19.12;60.39;99886.88;5109271;28;20079;-61
2022/09/12 07:19:08;;;;;;;7.20;6.32;;;;;;;19.14;59.90;99884.91;5110242;28;20087;-62
2022/09/12 07:21:38;;;;;;;8.40;6.60;;;;;;;19.21;60.30;99884.38;5109327;28;20143;-60
2022/09/12 07:24:08;;;;;;;7.47;6.45;;;;;;;19.26;60.12;99876.78;5110660;28;20112;-62
2022/09/12 07:26:35;;;;;;;6.82;5.93;;;;;;;19.31;60.07;99884.34;5110650;28;20048;-61
2022/09/12 07:29:02;;;;;;;8.20;6.13;;;;;;;19.36;60.47;99879.44;5111993;28;20131;-61
2022/09/12 07:31:48;;;;;;;8.25;6.50;;;;;;;19.44;60.64;99876.06;5114182;28;20142;-62
2022/09/12 07:34:16;;;;;;;7.18;6.25;;;;;;;19.50;60.32;99872.78;5114083;28;20051;-61
2022/09/12 07:36:43;;;;;;;7.18;6.03;;;;;;;19.57;60.00;99871.25;5112761;28;20461;-61
2022/09/12 07:39:09;;;;;;;7.35;6.10;;;;;;;19.64;59.88;99872.38;5113849;28;20079;-62
2022/09/12 07:41:36;;;;;;;6.00;5.40;;;;;;;19.70;59.78;99870.94;5113873;28;20130;-62
2022/09/12 07:44:05;;;;;;;8.20;5.90;;;;;;;19.75;59.45;99870.50;5113897;28;20083;-61
2022/09/12 07:46:32;;;;;;;7.38;6.57;;;;;;;19.82;59.42;99881.44;5113765;27;20075;-62
2022/09/12 07:49:00;;;;;;;12.13;6.30;;;;;;;19.84;59.00;99883.00;5113743;28;20083;-61
2022/09/12 07:51:28;;;;;;;6.78;6.07;;;;;;;19.87;59.03;99887.19;5112391;28;20464;-62
2022/09/12 07:53:55;;;;;;;7.75;6.45;;;;;;;19.90;58.90;99897.59;5112739;28;20499;-61
2022/09/12 07:56:23;;;;;;;9.55;6.53;;;;;;;19.91;58.83;99897.47;5113605;28;20073;-61
2022/09/12 07:58:55;;;;;;;7.10;6.40;;;;;;;19.92;58.68;99892.94;5112662;28;20044;-61
2022/09/12 08:01:22;;;;;;;8.65;7.10;;;;;;;19.93;58.70;99894.66;5113909;28;20055;-62
2022/09/12 08:03:54;;;;;;;10.32;7.35;;;;;;;19.92;58.35;99887.59;5113564;28;20104;-61
2022/09/12 08:06:24;;;;;;;8.50;6.70;;;;;;;19.93;58.72;99890.13;5112378;28;20134;-61
2022/09/12 08:08:55;;;;;;;11.05;6.95;;;;;;;19.91;58.49;99889.44;5113321;28;20130;-61
2022/09/12 08:11:23;;;;;;;8.13;6.43;;;;;;;19.93;58.53;99890.13;5113420;28;20138;-62
2022/09/12 08:13:52;;;;;;;7.75;6.03;;;;;;;19.96;58.52;99893.50;5112487;28;20055;-61
2022/09/12 08:16:24;;;;;;;9.43;7.07;;;;;;;19.99;58.88;99890.56;5112246;28;20490;-62
2022/09/12 08:18:50;;;;;;;6.72;5.53;;;;;;;20.04;59.28;99888.31;5113128;28;20079;-62
2022/09/12 08:21:24;;;;;;;8.35;6.50;;;;;;;20.07;58.99;99890.66;5113163;28;20047;-62
2022/09/12 08:23:52;;;;;;;7.28;6.47;;;;;;;20.17;59.22;99891.50;5113686;28;20047;-61
2022/09/12 08:26:19;;;;;;;7.35;6.40;;;;;;;20.26;58.85;99896.94;5113420;28;20089;-61
2022/09/12 08:28:46;;;;;;;8.27;6.13;;;;;;;20.35;58.89;99893.38;5113110;28;20128;-61
2022/09/12 08:31:15;;;;;;;8.38;6.88;;;;;;;20.44;58.32;99892.50;5113048;28;20048;-61
2022/09/12 08:33:42;;;;;;;6.68;5.97;;;;;;;20.52;58.40;99882.88;5113400;28;20051;-63
2022/09/12 08:36:13;;;;;;;8.10;6.40;;;;;;;20.60;58.00;99890.16;5111870;28;20055;-61
2022/09/12 08:38:42;;;;;;;7.82;6.43;;;;;;;20.66;58.24;99885.03;5112881;27;20263;-61
2022/09/12 08:41:13;;;;;;;8.32;6.25;;;;;;;20.73;57.75;99873.72;5112589;28;20130;-61
2022/09/12 08:44:05;;;;;;;7.50;6.50;;;;;;;20.80;58.29;99872.16;5112816;28;20112;-61
2022/09/12 08:46:44;;;;;;;7.88;6.18;;;;;;;20.91;57.67;99877.31;5112955;28;20093;-62
2022/09/12 08:49:17;;;;;;;8.88;6.78;;;;;;;21.02;57.63;99878.06;5112457;28;20048;-60
2022/09/12 08:51:44;;;;;;;10.02;6.68;;;;;;;21.10;57.26;99878.16;5112899;28;20146;-62
2022/09/12 08:54:38;;;;;;;7.47;6.68;;;;;;;21.11;57.00;99879.81;5112560;28;20358;-61
2022/09/12 08:57:05;;;;;;;7.90;7.10;;;;;;;21.21;56.86;99877.06;5110392;28;20067;-62
2022/09/12 08:59:41;;;;;;;8.13;7.15;;;;;;;21.19;56.17;99871.88;5111225;28;20079;-60
2022/09/12 09:02:26;;;;;;;10.30;6.60;;;;;;;21.21;56.63;99880.59;5112549;28;20158;-62
2022/09/12 09:05:16;;;;;;;8.35;7.40;;;;;;;21.22;56.36;99879.59;5112451;28;20079;-62
2022/09/12 09:08:12;;;;;;;9.40;7.65;;;;;;;21.22;55.95;99882.28;5112402;28;20047;-63
2022/09/12 09:11:11;;;;;;;8.63;7.07;;;;;;;21.23;56.00;99875.06;5111289;28;20059;-62
2022/09/12 09:16:45;;;;;;;8.75;6.38;;;;;;;21.28;56.50;99886.19;5112162;28;20089;-60
2022/09/12 09:19:29;;;;;;;9.02;7.70;;;;;;;21.22;56.19;99890.31;5110561;28;20043;-62
2022/09/12 09:22:04;;;;;;;8.75;7.85;;;;;;;21.26;55.91;99892.69;5110802;28;20416;-61
2022/09/12 09:24:54;;;;;;;8.40;7.40;;;;;;;21.24;56.25;99890.16;5110572;28;20134;-64
2022/09/12 09:27:34;;;;;;;11.00;8.15;;;;;;;21.29;55.82;99889.69;5110820;28;20127;-62
2022/09/12 09:30:18;;;;;;;10.95;7.70;;;;;;;21.27;55.75;99884.47;5111590;28;20051;-61
2022/09/12 09:32:49;;;;;;;11.35;7.65;;;;;;;21.31;56.32;99885.03;5110813;28;20059;-61
2022/09/12 09:35:18;;;;;;;9.32;7.40;;;;;;;21.35;56.87;99881.03;5110777;28;20123;-64
2022/09/12 09:37:59;;;;;;;9.05;7.20;;;;;;;21.37;56.96;99873.69;5111878;28;20083;-60
2022/09/12 09:40:35;;;;;;;8.77;7.47;;;;;;;21.50;56.99;99875.97;5111928;28;20086;-61
2022/09/12 09:43:23;;;;;;;8.60;7.45;;;;;;;21.59;57.01;99869.66;5111857;28;20134;-61
2022/09/12 09:45:52;;;;;;;9.70;8.10;;;;;;;21.77;56.96;99865.28;5111900;28;20411;-61
2022/09/12 09:48:24;;;;;;;11.55;8.15;;;;;;;21.89;56.89;99865.84;5111487;28;20040;-61
2022/09/12 09:50:51;;;;;;;8.88;7.38;;;;;;;22.03;57.31;99864.41;5110954;28;20052;-62
2022/09/12 09:53:29;;;;;;;11.38;7.93;;;;;;;22.15;57.20;99856.91;5111789;28;20051;-63
2022/09/12 09:56:01;;;;;;;11.48;7.60;;;;;;;22.31;56.80;99858.84;5110162;28;20083;-62
2022/09/12 09:58:33;;;;;;;9.77;7.72;;;;;;;22.46;56.31;99859.88;5111489;28;20055;-62
2022/09/12 10:01:19;;;;;;;8.67;7.67;;;;;;;22.62;56.40;99861.81;5111363;28;20071;-62
2022/09/12 10:03:51;;;;;;;9.18;7.38;;;;;;;22.78;55.81;99847.59;5111544;28;20077;-63
2022/09/12 10:06:18;;;;;;;10.90;8.43;;;;;;;22.94;55.83;99853.97;5111420;28;20491;-62
2022/09/12 10:08:47;;;;;;;9.43;7.80;;;;;;;23.08;55.88;99851.63;5111085;28;20086;-61
2022/09/12 10:11:27;;;;;;;12.60;8.60;;;;;;;23.21;56.01;99851.16;5109813;28;20150;-61
2022/09/12 10:14:01;;;;;;;8.63;7.75;;;;;;;23.37;55.54;99855.69;5111191;28;20047;-61
2022/09/12 10:16:28;;;;;;;8.38;7.07;;;;;;;23.53;55.37;99844.94;5111581;28;20072;-62
2022/09/12 10:18:57;;;;;;;9.20;8.15;;;;;;;23.66;54.77;99848.94;5111037;28;20091;-61
2022/09/12 10:21:28;;;;;;;9.50;7.78;;;;;;;23.76;54.36;99844.22;5109781;28;20047;-61
2022/09/12 10:24:21;;;;;;;8.52;7.63;;;;;;;23.86;54.29;99845.84;5111177;28;20054;-62
2022/09/12 10:26:53;;;;;;;8.38;7.32;;;;;;;23.98;54.00;99847.16;5111200;28;20059;-62
2022/09/12 10:29:32;;;;;;;9.02;7.75;;;;;;;24.02;52.81;99848.50;5110960;28;20055;-62
2022/09/12 10:32:03;;;;;;;9.05;7.60;;;;;;;24.10;53.09;99847.66;5109455;28;20493;-62
2022/09/12 10:34:35;;;;;;;10.32;8.27;;;;;;;24.15;52.67;99841.75;5111416;28;20051;-61
2022/09/12 10:37:08;;;;;;;9.85;8.55;;;;;;;24.22;53.62;99839.22;5110815;28;20483;-61
2022/09/12 10:39:37;;;;;;;;;;;;;;;24.31;54.44;99836.31;5111386;28;20052;-64
2022/09/12 10:42:04;;;;;;;10.52;7.75;;;;;;;24.51;54.20;99825.09;5109594;28;20341;-62
2022/09/12 10:44:33;;;;;;;9.15;7.20;;;;;;;24.65;53.71;99825.34;5109691;28;20516;-62
2022/09/12 10:47:19;;;;;;;11.57;9.27;;;;;;;24.71;51.53;99822.78;5109420;28;20130;-62
2022/09/12 10:49:45;;;;;;;12.48;10.10;;;;;;;24.85;51.42;99818.50;5092946;28;20055;-63
2022/09/12 10:52:17;;;;;;;10.30;9.18;;;;;;;24.92;50.16;99817.78;5110839;28;20102;-61
2022/09/12 10:54:44;;;;;;;11.70;9.25;;;;;;;25.00;51.30;99812.31;5110774;28;20096;-63
2022/09/12 10:57:21;;;;;;;14.40;10.68;;;;;;;25.07;49.98;99812.44;5109515;28;20517;-62
2022/09/12 10:59:54;;;;;;;14.63;9.90;;;;;;;25.23;51.47;99816.84;5110558;28;20560;-62
2022/09/12 11:02:58;;;;;;;11.63;9.75;;;;;;;25.37;51.02;99807.09;5111649;28;20052;-62
2022/09/12 11:05:42;;;;;;;;;;;;;;;25.66;52.96;99807.34;5114077;28;20079;-61
2022/09/12 11:08:30;;;;;;;10.73;8.50;;;;;;;26.10;52.40;99800.25;5114937;28;19920;-61
2022/09/12 11:11:12;;;;;;;10.23;9.13;;;;;;;26.60;53.43;99799.56;5114839;28;20051;-62
2022/09/12 11:13:49;;;;;;;10.48;9.23;;;;;;;27.23;50.61;99800.78;5114525;28;20040;-61
2022/09/12 11:16:40;;;;;;;12.95;8.50;;;;;;;27.90;50.60;99798.50;5114498;28;20606;-62
2022/09/12 11:19:30;;;;;;;8.23;7.38;;;;;;;28.67;49.93;99802.91;5113308;28;20051;-62
2022/09/12 11:22:20;;;;;;;7.43;6.72;;;;;;;29.48;48.34;99793.94;5114274;28;20463;-63
2022/09/12 11:25:11;;;;;;;7.05;6.35;;;;;;;30.23;47.51;99776.41;5114385;28;20093;-62
2022/09/12 11:27:49;;;;;;;7.35;6.65;;;;;;;30.91;45.41;99781.41;5114427;28;20116;-63
2022/09/12 11:30:16;;;;;;;7.78;6.85;;;;;;;31.50;44.48;99786.50;5114248;28;20093;-62
2022/09/12 11:32:55;;;;;;;6.80;5.82;;;;;;;31.98;43.29;99784.09;5114103;28;20101;-62
2022/09/12 11:35:26;;;;;;;6.55;5.88;;;;;;;32.45;42.41;99771.75;5114445;28;20150;-63
2022/09/12 11:37:59;;;;;;;7.10;6.33;;;;;;;32.86;42.89;99767.31;5112986;28;20091;-61
2022/09/12 11:40:55;;;;;;;5.75;5.18;;;;;;;33.28;41.46;99766.41;5114108;28;20146;-60
2022/09/12 11:43:32;;;;;;;4.85;4.45;;;;;;;33.76;39.03;99760.91;5113916;28;20051;-61
2022/09/12 11:46:09;;;;;;;5.22;4.72;;;;;;;34.16;38.12;99761.94;5113959;28;20578;-62
2022/09/12 11:49:01;;;;;;;4.35;3.95;;;;;;;34.53;38.98;99760.66;5113783;28;20066;-61
2022/09/12 11:51:38;;;;;;;5.15;4.60;;;;;;;34.89;36.53;99759.63;5085640;28;20105;-62
2022/09/12 11:54:34;;;;;;;5.38;4.53;;;;;;;35.12;37.01;99763.25;5112809;28;20128;-62